sensor_id;sensor_type;location;lat;lon;timestamp;pressure;altitude;pressure_sealevel;temperature;humidity
63929;BME280;50105;46.522;6.626;2022-08-02T00:00:10;96254.88;;;22.40;50.86
63929;BME280;50105;46.522;6.626;2022-08-02T00:02:40;96255.72;;;22.41;51.00
63929;BME280;50105;46.522;6.626;2022-08-02T00:05:07;96249.59;;;22.40;50.92
63929;BME280;50105;46.522;6.626;2022-08-02T00:07:34;96254.03;;;22.40;51.17
63929;BME280;50105;46.522;6.626;2022-08-02T00:10:07;96254.88;;;22.40;50.99
63929;BME280;50105;46.522;6.626;2022-08-02T00:12:33;96250.56;;;22.39;51.36
63929;BME280;50105;46.522;6.626;2022-08-02T00:15:00;96246.13;;;22.40;50.92
63929;BME280;50105;46.522;6.626;2022-08-02T00:17:26;96242.63;;;22.39;51.16
63929;BME280;50105;46.522;6.626;2022-08-02T00:19:53;96254.88;;;22.40;51.27
63929;BME280;50105;46.522;6.626;2022-08-02T00:22:19;96245.28;;;22.39;51.04
63929;BME280;50105;46.522;6.626;2022-08-02T00:24:46;96247.91;;;22.39;51.14
63929;BME280;50105;46.522;6.626;2022-08-02T00:27:12;96247.91;;;22.39;51.23
63929;BME280;50105;46.522;6.626;2022-08-02T00:29:39;96240.97;;;22.38;51.16
63929;BME280;50105;46.522;6.626;2022-08-02T00:32:18;96246.25;;;22.38;51.00
63929;BME280;50105;46.522;6.626;2022-08-02T00:34:44;96247.91;;;22.39;51.28
63929;BME280;50105;46.522;6.626;2022-08-02T00:37:11;96248.88;;;22.38;51.41
63929;BME280;50105;46.522;6.626;2022-08-02T00:39:38;96248.88;;;22.38;51.29
63929;BME280;50105;46.522;6.626;2022-08-02T00:42:05;96251.53;;;22.38;50.98
63929;BME280;50105;46.522;6.626;2022-08-02T00:44:31;96255.13;;;22.37;51.21
63929;BME280;50105;46.522;6.626;2022-08-02T00:46:58;96251.53;;;22.38;51.27
63929;BME280;50105;46.522;6.626;2022-08-02T00:49:24;96255.13;;;22.37;51.30
63929;BME280;50105;46.522;6.626;2022-08-02T00:51:51;96256.81;;;22.38;51.13
63929;BME280;50105;46.522;6.626;2022-08-02T00:54:18;96256.81;;;22.38;51.41
63929;BME280;50105;46.522;6.626;2022-08-02T00:56:44;96252.47;;;22.37;51.28
63929;BME280;50105;46.522;6.626;2022-08-02T00:59:16;96255.13;;;22.37;51.32
63929;BME280;50105;46.522;6.626;2022-08-02T01:01:42;96243.72;;;22.37;51.43
63929;BME280;50105;46.522;6.626;2022-08-02T01:04:23;96249.84;;;22.37;51.57
63929;BME280;50105;46.522;6.626;2022-08-02T01:06:57;96254.28;;;22.37;51.60
63929;BME280;50105;46.522;6.626;2022-08-02T01:09:23;96252.63;;;22.35;51.30
63929;BME280;50105;46.522;6.626;2022-08-02T01:11:50;96248.16;;;22.36;51.32
63929;BME280;50105;46.522;6.626;2022-08-02T01:14:16;96254.41;;;22.35;51.25
63929;BME280;50105;46.522;6.626;2022-08-02T01:16:50;96250.13;;;22.34;51.38
63929;BME280;50105;46.522;6.626;2022-08-02T01:21:59;96250.94;;;22.34;51.56
63929;BME280;50105;46.522;6.626;2022-08-02T01:29:48;96260.69;;;22.34;51.22
63929;BME280;50105;46.522;6.626;2022-08-02T01:32:17;96257.06;;;22.35;51.56
63929;BME280;50105;46.522;6.626;2022-08-02T01:34:53;96253.56;;;22.34;51.63
63929;BME280;50105;46.522;6.626;2022-08-02T01:37:43;96247.47;;;22.34;51.52
63929;BME280;50105;46.522;6.626;2022-08-02T01:40:09;96255.41;;;22.34;51.68
63929;BME280;50105;46.522;6.626;2022-08-02T01:42:36;96249.25;;;22.33;51.42
63929;BME280;50105;46.522;6.626;2022-08-02T01:45:03;96248.41;;;22.33;51.60
63929;BME280;50105;46.522;6.626;2022-08-02T01:47:32;96256.34;;;22.33;51.75
63929;BME280;50105;46.522;6.626;2022-08-02T01:50:00;96253.69;;;22.33;51.43
63929;BME280;50105;46.522;6.626;2022-08-02T01:52:28;96253.69;;;22.33;51.53
63929;BME280;50105;46.522;6.626;2022-08-02T01:55:03;96257.31;;;22.32;51.33
63929;BME280;50105;46.522;6.626;2022-08-02T01:57:33;96250.38;;;22.31;51.49
63929;BME280;50105;46.522;6.626;2022-08-02T02:00:07;96254.66;;;22.32;51.59
63929;BME280;50105;46.522;6.626;2022-08-02T02:02:35;96248.69;;;22.30;51.64
63929;BME280;50105;46.522;6.626;2022-08-02T02:05:04;96252.03;;;22.32;51.50
63929;BME280;50105;46.522;6.626;2022-08-02T02:07:31;96243.13;;;22.33;51.61
63929;BME280;50105;46.522;6.626;2022-08-02T02:09:58;96244.25;;;22.30;51.43
63929;BME280;50105;46.522;6.626;2022-08-02T02:12:26;96246.75;;;22.32;51.73
63929;BME280;50105;46.522;6.626;2022-08-02T02:14:52;96240.66;;;22.31;51.58
63929;BME280;50105;46.522;6.626;2022-08-02T02:17:20;96232.84;;;22.30;51.73
63929;BME280;50105;46.522;6.626;2022-08-02T02:20:08;96224.94;;;22.30;51.72
63929;BME280;50105;46.522;6.626;2022-08-02T02:22:38;96229.25;;;22.31;51.65
63929;BME280;50105;46.522;6.626;2022-08-02T02:25:06;96225.91;;;22.29;51.59
63929;BME280;50105;46.522;6.626;2022-08-02T02:27:36;96232.00;;;22.29;51.98
63929;BME280;50105;46.522;6.626;2022-08-02T02:30:05;96232.00;;;22.29;51.81
63929;BME280;50105;46.522;6.626;2022-08-02T02:32:32;96226.72;;;22.29;52.11
63929;BME280;50105;46.522;6.626;2022-08-02T02:35:00;96226.84;;;22.28;52.02
63929;BME280;50105;46.522;6.626;2022-08-02T02:37:29;96224.22;;;22.28;51.69
63929;BME280;50105;46.522;6.626;2022-08-02T02:39:56;96224.22;;;22.28;52.01
63929;BME280;50105;46.522;6.626;2022-08-02T02:42:26;96224.22;;;22.28;51.74
63929;BME280;50105;46.522;6.626;2022-08-02T02:44:53;96227.84;;;22.27;51.87
63929;BME280;50105;46.522;6.626;2022-08-02T02:47:20;96223.28;;;22.29;52.03
63929;BME280;50105;46.522;6.626;2022-08-02T02:50:06;96217.28;;;22.27;51.98
63929;BME280;50105;46.522;6.626;2022-08-02T02:52:33;96227.84;;;22.27;51.82
63929;BME280;50105;46.522;6.626;2022-08-02T02:55:00;96221.69;;;22.26;51.91
63929;BME280;50105;46.522;6.626;2022-08-02T02:57:27;96223.41;;;22.27;52.02
63929;BME280;50105;46.522;6.626;2022-08-02T02:59:53;96215.47;;;22.27;51.90
63929;BME280;50105;46.522;6.626;2022-08-02T03:02:20;96222.56;;;22.27;51.99
63929;BME280;50105;46.522;6.626;2022-08-02T03:04:46;96221.69;;;22.26;52.24
63929;BME280;50105;46.522;6.626;2022-08-02T03:07:23;96226.16;;;22.26;52.11
63929;BME280;50105;46.522;6.626;2022-08-02T03:12:15;96221.88;;;22.25;52.04
63929;BME280;50105;46.522;6.626;2022-08-02T03:14:45;96224.50;;;22.25;51.94
63929;BME280;50105;46.522;6.626;2022-08-02T03:17:14;96220.03;;;22.25;52.08
63929;BME280;50105;46.522;6.626;2022-08-02T03:19:41;96220.88;;;22.26;52.07
63929;BME280;50105;46.522;6.626;2022-08-02T03:22:08;96224.50;;;22.25;52.05
63929;BME280;50105;46.522;6.626;2022-08-02T03:24:35;96224.50;;;22.25;52.33
63929;BME280;50105;46.522;6.626;2022-08-02T03:27:01;96219.22;;;22.25;52.09
63929;BME280;50105;46.522;6.626;2022-08-02T03:29:28;96222.81;;;22.24;52.13
63929;BME280;50105;46.522;6.626;2022-08-02T03:31:59;96222.81;;;22.24;52.19
63929;BME280;50105;46.522;6.626;2022-08-02T03:34:26;96217.53;;;22.24;52.46
63929;BME280;50105;46.522;6.626;2022-08-02T03:36:53;96223.66;;;22.24;52.33
63929;BME280;50105;46.522;6.626;2022-08-02T03:39:21;96217.53;;;22.24;52.54
63929;BME280;50105;46.522;6.626;2022-08-02T03:41:48;96228.09;;;22.24;52.71
63929;BME280;50105;46.522;6.626;2022-08-02T03:44:15;96223.78;;;22.22;52.25
63929;BME280;50105;46.522;6.626;2022-08-02T03:46:42;96221.13;;;22.22;52.61
63929;BME280;50105;46.522;6.626;2022-08-02T03:49:10;96224.50;;;22.25;52.40
63929;BME280;50105;46.522;6.626;2022-08-02T03:51:37;96212.53;;;22.20;52.39
63929;BME280;50105;46.522;6.626;2022-08-02T03:54:04;96212.25;;;22.24;52.46
63929;BME280;50105;46.522;6.626;2022-08-02T03:59:07;96214.19;;;22.21;52.33
63929;BME280;50105;46.522;6.626;2022-08-02T04:01:34;96215.84;;;22.22;52.64
63929;BME280;50105;46.522;6.626;2022-08-02T04:04:01;96212.53;;;22.20;52.46
63929;BME280;50105;46.522;6.626;2022-08-02T04:08:54;96215.97;;;22.21;52.77
63929;BME280;50105;46.522;6.626;2022-08-02T04:11:20;96212.53;;;22.20;52.74
63929;BME280;50105;46.522;6.626;2022-08-02T04:14:06;96212.53;;;22.20;52.78
63929;BME280;50105;46.522;6.626;2022-08-02T04:19:02;96212.53;;;22.20;52.63
63929;BME280;50105;46.522;6.626;2022-08-02T04:21:32;96206.41;;;22.20;52.61
63929;BME280;50105;46.522;6.626;2022-08-02T04:24:18;96210.84;;;22.19;52.63
63929;BME280;50105;46.522;6.626;2022-08-02T04:26:49;96210.84;;;22.19;52.91
63929;BME280;50105;46.522;6.626;2022-08-02T04:29:16;96216.09;;;22.19;52.83
63929;BME280;50105;46.522;6.626;2022-08-02T04:31:43;96211.69;;;22.20;52.69
63929;BME280;50105;46.522;6.626;2022-08-02T04:34:10;96215.16;;;22.20;52.78
63929;BME280;50105;46.522;6.626;2022-08-02T04:36:40;96216.09;;;22.19;52.66
63929;BME280;50105;46.522;6.626;2022-08-02T04:39:07;96204.72;;;22.19;52.70
63929;BME280;50105;46.522;6.626;2022-08-02T04:41:37;96214.44;;;22.18;52.69
63929;BME280;50105;46.522;6.626;2022-08-02T04:44:09;96226.66;;;22.19;52.76
63929;BME280;50105;46.522;6.626;2022-08-02T04:46:35;96219.72;;;22.18;52.65
63929;BME280;50105;46.522;6.626;2022-08-02T04:49:02;96219.72;;;22.18;52.70
63929;BME280;50105;46.522;6.626;2022-08-02T04:51:32;96222.38;;;22.18;52.82
63929;BME280;50105;46.522;6.626;2022-08-02T04:54:03;96230.28;;;22.18;53.02
63929;BME280;50105;46.522;6.626;2022-08-02T04:56:34;96225.00;;;22.18;52.93
63929;BME280;50105;46.522;6.626;2022-08-02T04:59:01;96233.03;;;22.17;53.20
63929;BME280;50105;46.522;6.626;2022-08-02T05:01:28;96241.81;;;22.17;53.15
63929;BME280;50105;46.522;6.626;2022-08-02T05:03:54;96241.81;;;22.17;53.24
63929;BME280;50105;46.522;6.626;2022-08-02T05:06:20;96238.31;;;22.17;52.79
63929;BME280;50105;46.522;6.626;2022-08-02T05:08:47;96241.81;;;22.17;52.85
63929;BME280;50105;46.522;6.626;2022-08-02T05:11:18;96244.44;;;22.17;52.55
63929;BME280;50105;46.522;6.626;2022-08-02T05:13:44;96240.16;;;22.16;52.97
63929;BME280;50105;46.522;6.626;2022-08-02T05:16:24;96241.81;;;22.17;52.98
63929;BME280;50105;46.522;6.626;2022-08-02T05:18:57;96240.16;;;22.16;53.09
63929;BME280;50105;46.522;6.626;2022-08-02T05:21:23;96248.06;;;22.16;53.10
63929;BME280;50105;46.522;6.626;2022-08-02T05:23:49;96242.78;;;22.16;52.92
63929;BME280;50105;46.522;6.626;2022-08-02T05:26:16;96243.59;;;22.17;52.84
63929;BME280;50105;46.522;6.626;2022-08-02T05:28:42;96244.44;;;22.17;53.07
63929;BME280;50105;46.522;6.626;2022-08-02T05:31:09;96249.72;;;22.17;53.11
63929;BME280;50105;46.522;6.626;2022-08-02T05:33:38;96247.09;;;22.17;53.07
63929;BME280;50105;46.522;6.626;2022-08-02T05:36:05;96241.81;;;22.17;53.28
63929;BME280;50105;46.522;6.626;2022-08-02T05:38:31;96251.41;;;22.18;53.18
63929;BME280;50105;46.522;6.626;2022-08-02T05:41:02;96250.53;;;22.18;53.38
63929;BME280;50105;46.522;6.626;2022-08-02T05:43:29;96247.09;;;22.17;53.45
63929;BME280;50105;46.522;6.626;2022-08-02T05:45:55;96252.25;;;22.19;53.55
63929;BME280;50105;46.522;6.626;2022-08-02T05:48:22;96255.69;;;22.19;53.75
63929;BME280;50105;46.522;6.626;2022-08-02T05:50:59;96253.06;;;22.19;53.56
63929;BME280;50105;46.522;6.626;2022-08-02T05:53:40;96255.69;;;22.19;53.60
63929;BME280;50105;46.522;6.626;2022-08-02T05:56:32;96250.41;;;22.19;53.81
63929;BME280;50105;46.522;6.626;2022-08-02T05:59:02;96267.09;;;22.20;53.65
63929;BME280;50105;46.522;6.626;2022-08-02T06:01:32;96260.03;;;22.20;54.00
63929;BME280;50105;46.522;6.626;2022-08-02T06:03:59;96255.56;;;22.21;53.97
63929;BME280;50105;46.522;6.626;2022-08-02T06:06:29;96260.84;;;22.21;54.25
63929;BME280;50105;46.522;6.626;2022-08-02T06:08:58;96258.09;;;22.22;54.37
63929;BME280;50105;46.522;6.626;2022-08-02T06:11:29;96266.00;;;22.22;54.45
63929;BME280;50105;46.522;6.626;2022-08-02T06:13:59;96262.41;;;22.24;54.31
63929;BME280;50105;46.522;6.626;2022-08-02T06:16:25;96252.81;;;22.22;54.98
63929;BME280;50105;46.522;6.626;2022-08-02T06:18:58;96260.72;;;22.22;55.66
63929;BME280;50105;46.522;6.626;2022-08-02T06:24:11;96257.84;;;22.26;56.66
63929;BME280;50105;46.522;6.626;2022-08-02T06:26:38;96259.50;;;22.27;56.93
63929;BME280;50105;46.522;6.626;2022-08-02T06:29:06;96260.22;;;22.29;57.57
63929;BME280;50105;46.522;6.626;2022-08-02T06:31:33;96261.06;;;22.29;57.41
63929;BME280;50105;46.522;6.626;2022-08-02T06:34:01;96262.59;;;22.32;57.84
63929;BME280;50105;46.522;6.626;2022-08-02T06:41:23;96257.06;;;22.35;58.17
63929;BME280;50105;46.522;6.626;2022-08-02T06:43:53;96260.38;;;22.37;57.95
63929;BME280;50105;46.522;6.626;2022-08-02T06:46:20;96262.09;;;22.38;58.15
63929;BME280;50105;46.522;6.626;2022-08-02T06:49:07;96255.00;;;22.39;58.45
63929;BME280;50105;46.522;6.626;2022-08-02T06:51:33;96254.88;;;22.40;58.42
63929;BME280;50105;46.522;6.626;2022-08-02T06:54:00;96261.81;;;22.41;58.27
63929;BME280;50105;46.522;6.626;2022-08-02T06:56:26;96263.50;;;22.42;58.21
63929;BME280;50105;46.522;6.626;2022-08-02T06:58:53;96260.75;;;22.44;58.69
63929;BME280;50105;46.522;6.626;2022-08-02T07:01:19;96261.56;;;22.44;58.32
63929;BME280;50105;46.522;6.626;2022-08-02T07:03:45;96263.22;;;22.45;58.78
63929;BME280;50105;46.522;6.626;2022-08-02T07:06:12;96262.28;;;22.46;58.71
63929;BME280;50105;46.522;6.626;2022-08-02T07:08:38;96267.56;;;22.46;58.55
63929;BME280;50105;46.522;6.626;2022-08-02T07:11:06;96266.59;;;22.47;58.70
63929;BME280;50105;46.522;6.626;2022-08-02T07:13:33;96270.91;;;22.48;58.79
63929;BME280;50105;46.522;6.626;2022-08-02T07:16:05;96271.88;;;22.47;58.84
63929;BME280;50105;46.522;6.626;2022-08-02T07:18:32;96262.97;;;22.48;58.97
63929;BME280;50105;46.522;6.626;2022-08-02T07:20:59;96269.91;;;22.50;58.82
63929;BME280;50105;46.522;6.626;2022-08-02T07:23:25;96268.13;;;22.50;59.05
63929;BME280;50105;46.522;6.626;2022-08-02T07:25:52;96268.97;;;22.51;58.97
63929;BME280;50105;46.522;6.626;2022-08-02T07:28:29;96264.63;;;22.50;59.05
63929;BME280;50105;46.522;6.626;2022-08-02T07:30:55;96267.16;;;22.51;59.47
63929;BME280;50105;46.522;6.626;2022-08-02T07:33:22;96265.38;;;22.52;59.07
63929;BME280;50105;46.522;6.626;2022-08-02T07:36:04;96269.66;;;22.53;59.47
63929;BME280;50105;46.522;6.626;2022-08-02T07:38:34;96268.69;;;22.54;59.60
63929;BME280;50105;46.522;6.626;2022-08-02T07:41:02;96267.78;;;22.55;59.34
63929;BME280;50105;46.522;6.626;2022-08-02T07:43:29;96269.44;;;22.56;59.44
63929;BME280;50105;46.522;6.626;2022-08-02T07:45:56;96258.63;;;22.59;59.67
63929;BME280;50105;46.522;6.626;2022-08-02T07:48:26;96265.56;;;22.60;59.62
63929;BME280;50105;46.522;6.626;2022-08-02T07:50:52;96263.63;;;22.62;59.59
63929;BME280;50105;46.522;6.626;2022-08-02T07:53:19;96261.97;;;22.61;59.48
63929;BME280;50105;46.522;6.626;2022-08-02T07:56:05;96265.44;;;22.62;59.71
63929;BME280;50105;46.522;6.626;2022-08-02T07:58:32;96268.91;;;22.62;59.48
63929;BME280;50105;46.522;6.626;2022-08-02T08:00:58;96261.97;;;22.61;59.55
63929;BME280;50105;46.522;6.626;2022-08-02T08:03:25;96256.69;;;22.61;59.60
63929;BME280;50105;46.522;6.626;2022-08-02T08:05:51;96257.53;;;22.62;59.59
63929;BME280;50105;46.522;6.626;2022-08-02T08:08:19;96254.75;;;22.63;59.75
63929;BME280;50105;46.522;6.626;2022-08-02T08:10:46;96258.09;;;22.65;59.69
63929;BME280;50105;46.522;6.626;2022-08-02T08:13:13;96247.53;;;22.65;59.66
63929;BME280;50105;46.522;6.626;2022-08-02T08:15:40;96247.53;;;22.65;59.93
63929;BME280;50105;46.522;6.626;2022-08-02T08:18:16;96238.63;;;22.66;59.68
63929;BME280;50105;46.522;6.626;2022-08-02T08:20:43;96233.34;;;22.66;59.85
63929;BME280;50105;46.522;6.626;2022-08-02T08:23:09;96239.22;;;22.70;59.61
63929;BME280;50105;46.522;6.626;2022-08-02T08:25:36;96236.41;;;22.71;59.70
63929;BME280;50105;46.522;6.626;2022-08-02T08:28:06;96235.59;;;22.71;59.56
63929;BME280;50105;46.522;6.626;2022-08-02T08:30:33;96234.50;;;22.73;59.51
63929;BME280;50105;46.522;6.626;2022-08-02T08:32:59;96230.88;;;22.74;59.83
63929;BME280;50105;46.522;6.626;2022-08-02T08:35:25;96230.88;;;22.74;59.58
63929;BME280;50105;46.522;6.626;2022-08-02T08:37:52;96228.25;;;22.74;59.87
63929;BME280;50105;46.522;6.626;2022-08-02T08:40:18;96236.16;;;22.74;59.49
63929;BME280;50105;46.522;6.626;2022-08-02T08:42:45;96232.53;;;22.76;59.87
63929;BME280;50105;46.522;6.626;2022-08-02T08:45:11;96220.31;;;22.74;60.00
63929;BME280;50105;46.522;6.626;2022-08-02T08:47:39;96226.44;;;22.75;60.05
63929;BME280;50105;46.522;6.626;2022-08-02T08:50:07;96225.47;;;22.76;59.67
63929;BME280;50105;46.522;6.626;2022-08-02T08:55:18;96231.72;;;22.75;60.01
63929;BME280;50105;46.522;6.626;2022-08-02T08:57:47;96232.53;;;22.76;59.78
63929;BME280;50105;46.522;6.626;2022-08-02T09:00:14;96228.09;;;22.76;60.24
63929;BME280;50105;46.522;6.626;2022-08-02T09:02:42;96234.25;;;22.77;60.02
63929;BME280;50105;46.522;6.626;2022-08-02T09:05:09;96234.81;;;22.80;60.13
63929;BME280;50105;46.522;6.626;2022-08-02T09:07:36;96241.88;;;22.80;60.21
63929;BME280;50105;46.522;6.626;2022-08-02T09:13:02;96233.94;;;22.80;60.18
63929;BME280;50105;46.522;6.626;2022-08-02T09:16:04;96233.94;;;22.80;60.12
63929;BME280;50105;46.522;6.626;2022-08-02T09:18:38;96230.38;;;22.81;59.61
63929;BME280;50105;46.522;6.626;2022-08-02T09:21:06;96234.94;;;22.79;59.74
63929;BME280;50105;46.522;6.626;2022-08-02T09:23:45;96237.56;;;22.79;59.93
63929;BME280;50105;46.522;6.626;2022-08-02T09:26:13;96235.91;;;22.78;59.93
63929;BME280;50105;46.522;6.626;2022-08-02T09:28:41;96226.19;;;22.78;60.01
63929;BME280;50105;46.522;6.626;2022-08-02T09:31:12;96232.28;;;22.79;60.22
63929;BME280;50105;46.522;6.626;2022-08-02T09:33:39;96225.34;;;22.78;59.91
63929;BME280;50105;46.522;6.626;2022-08-02T09:38:34;96232.28;;;22.79;59.77
63929;BME280;50105;46.522;6.626;2022-08-02T09:41:01;96220.06;;;22.78;59.99
63929;BME280;50105;46.522;6.626;2022-08-02T09:43:49;96228.66;;;22.80;60.01
63929;BME280;50105;46.522;6.626;2022-08-02T09:46:30;96215.63;;;22.78;59.93
63929;BME280;50105;46.522;6.626;2022-08-02T09:51:28;96228.66;;;22.80;59.88
63929;BME280;50105;46.522;6.626;2022-08-02T09:53:56;96216.44;;;22.79;59.90
63929;BME280;50105;46.522;6.626;2022-08-02T09:56:41;96217.28;;;22.79;59.83
63929;BME280;50105;46.522;6.626;2022-08-02T09:59:08;96213.66;;;22.80;59.88
63929;BME280;50105;46.522;6.626;2022-08-02T10:01:35;96211.88;;;22.81;59.85
63929;BME280;50105;46.522;6.626;2022-08-02T10:04:06;96202.00;;;22.83;59.48
63929;BME280;50105;46.522;6.626;2022-08-02T10:06:33;96204.50;;;22.84;59.34
63929;BME280;50105;46.522;6.626;2022-08-02T10:08:59;96206.16;;;22.85;59.55
63929;BME280;50105;46.522;6.626;2022-08-02T10:11:26;96197.44;;;22.85;59.54
63929;BME280;50105;46.522;6.626;2022-08-02T10:13:53;96198.25;;;22.85;59.50
63929;BME280;50105;46.522;6.626;2022-08-02T10:16:21;96196.44;;;22.86;59.17
63929;BME280;50105;46.522;6.626;2022-08-02T10:18:49;96187.53;;;22.87;58.95
63929;BME280;50105;46.522;6.626;2022-08-02T10:23:47;96183.66;;;22.91;59.35
63929;BME280;50105;46.522;6.626;2022-08-02T10:26:17;96178.38;;;22.91;58.96
63929;BME280;50105;46.522;6.626;2022-08-02T10:28:47;96180.03;;;22.92;58.89
63929;BME280;50105;46.522;6.626;2022-08-02T10:31:16;96178.13;;;22.94;58.74
63929;BME280;50105;46.522;6.626;2022-08-02T10:33:44;96169.22;;;22.95;58.59
63929;BME280;50105;46.522;6.626;2022-08-02T10:36:15;96171.72;;;22.97;58.51
63929;BME280;50105;46.522;6.626;2022-08-02T10:38:43;96167.25;;;22.97;58.29
63929;BME280;50105;46.522;6.626;2022-08-02T10:41:10;96165.59;;;22.96;58.46
63929;BME280;50105;46.522;6.626;2022-08-02T10:49:01;96163.66;;;22.98;58.54
63929;BME280;50105;46.522;6.626;2022-08-02T10:54:27;96159.19;;;22.99;58.41
63929;BME280;50105;46.522;6.626;2022-08-02T10:56:58;96161.97;;;22.97;58.42
63929;BME280;50105;46.522;6.626;2022-08-02T11:01:53;96158.38;;;22.98;58.40
63929;BME280;50105;46.522;6.626;2022-08-02T11:04:28;96147.50;;;23.02;58.29
63929;BME280;50105;46.522;6.626;2022-08-02T11:09:33;96144.59;;;23.05;57.90
63929;BME280;50105;46.522;6.626;2022-08-02T11:12:01;96148.91;;;23.06;57.73
63929;BME280;50105;46.522;6.626;2022-08-02T11:14:28;96146.72;;;23.11;57.41
63929;BME280;50105;46.522;6.626;2022-08-02T11:19:22;96144.50;;;23.16;57.34
63929;BME280;50105;46.522;6.626;2022-08-02T11:22:02;96140.88;;;23.17;57.07
63929;BME280;50105;46.522;6.626;2022-08-02T11:26:56;96144.34;;;23.18;57.40
63929;BME280;50105;46.522;6.626;2022-08-02T11:29:36;96139.06;;;23.18;57.36
63929;BME280;50105;46.522;6.626;2022-08-02T11:32:05;96145.19;;;23.18;57.32
63929;BME280;50105;46.522;6.626;2022-08-02T11:34:32;96128.38;;;23.19;57.29
63929;BME280;50105;46.522;6.626;2022-08-02T11:37:03;96127.25;;;23.22;57.01
63929;BME280;50105;46.522;6.626;2022-08-02T11:39:30;96137.38;;;23.26;56.88
63929;BME280;50105;46.522;6.626;2022-08-02T11:41:57;96130.03;;;23.30;56.86
63929;BME280;50105;46.522;6.626;2022-08-02T11:44:25;96128.91;;;23.33;56.78
63929;BME280;50105;46.522;6.626;2022-08-02T11:49:21;96120.03;;;23.34;56.49
63929;BME280;50105;46.522;6.626;2022-08-02T11:51:51;96125.31;;;23.34;56.39
63929;BME280;50105;46.522;6.626;2022-08-02T11:54:27;96127.00;;;23.35;56.59
63929;BME280;50105;46.522;6.626;2022-08-02T11:56:53;96129.50;;;23.36;56.50
63929;BME280;50105;46.522;6.626;2022-08-02T11:59:20;96124.94;;;23.38;56.22
63929;BME280;50105;46.522;6.626;2022-08-02T12:01:47;96124.75;;;23.40;56.38
63929;BME280;50105;46.522;6.626;2022-08-02T12:04:17;96115.88;;;23.41;56.56
63929;BME280;50105;46.522;6.626;2022-08-02T12:06:58;96119.47;;;23.40;56.15
63929;BME280;50105;46.522;6.626;2022-08-02T12:09:25;96117.81;;;23.39;56.54
63929;BME280;50105;46.522;6.626;2022-08-02T12:11:52;96112.25;;;23.42;56.43
63929;BME280;50105;46.522;6.626;2022-08-02T12:14:19;96108.63;;;23.43;56.05
63929;BME280;50105;46.522;6.626;2022-08-02T12:16:46;96108.34;;;23.46;56.17
63929;BME280;50105;46.522;6.626;2022-08-02T12:19:32;96110.00;;;23.47;56.24
63929;BME280;50105;46.522;6.626;2022-08-02T12:22:12;96106.38;;;23.48;56.20
63929;BME280;50105;46.522;6.626;2022-08-02T12:24:40;96107.91;;;23.51;56.42
63929;BME280;50105;46.522;6.626;2022-08-02T12:27:07;96106.97;;;23.52;55.92
63929;BME280;50105;46.522;6.626;2022-08-02T12:29:37;96106.13;;;23.51;56.23
63929;BME280;50105;46.522;6.626;2022-08-02T12:32:24;96102.78;;;23.49;56.23
63929;BME280;50105;46.522;6.626;2022-08-02T12:35:00;96108.06;;;23.49;56.08
63929;BME280;50105;46.522;6.626;2022-08-02T12:37:28;96107.22;;;23.49;56.14
63929;BME280;50105;46.522;6.626;2022-08-02T12:39:54;96106.38;;;23.48;56.42
63929;BME280;50105;46.522;6.626;2022-08-02T12:42:20;96100.81;;;23.51;56.08
63929;BME280;50105;46.522;6.626;2022-08-02T12:44:54;96104.19;;;23.54;56.05
63929;BME280;50105;46.522;6.626;2022-08-02T12:47:21;96094.69;;;23.51;56.16
63929;BME280;50105;46.522;6.626;2022-08-02T12:52:33;96101.66;;;23.52;56.35
63929;BME280;50105;46.522;6.626;2022-08-02T12:54:59;96092.75;;;23.53;55.87
63929;BME280;50105;46.522;6.626;2022-08-02T12:57:26;96093.28;;;23.57;55.61
63929;BME280;50105;46.522;6.626;2022-08-02T12:59:52;96091.09;;;23.62;55.59
63929;BME280;50105;46.522;6.626;2022-08-02T13:02:19;96093.56;;;23.63;55.51
63929;BME280;50105;46.522;6.626;2022-08-02T13:04:46;96083.81;;;23.64;55.31
63929;BME280;50105;46.522;6.626;2022-08-02T13:07:15;96086.47;;;23.64;55.85
63929;BME280;50105;46.522;6.626;2022-08-02T13:09:42;96089.13;;;23.64;55.35
63929;BME280;50105;46.522;6.626;2022-08-02T13:12:13;96086.47;;;23.64;55.46
63929;BME280;50105;46.522;6.626;2022-08-02T13:14:40;96082.16;;;23.63;55.71
63929;BME280;50105;46.522;6.626;2022-08-02T13:17:08;96084.66;;;23.64;55.36
63929;BME280;50105;46.522;6.626;2022-08-02T13:19:35;96079.22;;;23.66;55.16
63929;BME280;50105;46.522;6.626;2022-08-02T13:22:02;96083.56;;;23.67;55.19
63929;BME280;50105;46.522;6.626;2022-08-02T13:24:29;96079.91;;;23.68;55.47
63929;BME280;50105;46.522;6.626;2022-08-02T13:27:16;96076.28;;;23.69;55.08
63929;BME280;50105;46.522;6.626;2022-08-02T13:29:43;96072.66;;;23.70;55.14
63929;BME280;50105;46.522;6.626;2022-08-02T13:32:09;96078.66;;;23.72;55.09
63929;BME280;50105;46.522;6.626;2022-08-02T13:34:36;96077.69;;;23.73;54.65
63929;BME280;50105;46.522;6.626;2022-08-02T13:37:02;96070.44;;;23.75;54.66
63929;BME280;50105;46.522;6.626;2022-08-02T13:39:29;96070.13;;;23.78;54.45
63929;BME280;50105;46.522;6.626;2022-08-02T13:41:56;96065.41;;;23.82;54.24
63929;BME280;50105;46.522;6.626;2022-08-02T13:44:22;96062.63;;;23.84;54.03
63929;BME280;50105;46.522;6.626;2022-08-02T13:46:48;96060.38;;;23.89;53.76
63929;BME280;50105;46.522;6.626;2022-08-02T13:49:15;96058.41;;;23.91;53.84
63929;BME280;50105;46.522;6.626;2022-08-02T13:51:48;96060.09;;;23.92;54.01
63929;BME280;50105;46.522;6.626;2022-08-02T13:54:15;96053.44;;;23.88;53.63
63929;BME280;50105;46.522;6.626;2022-08-02T13:56:42;96055.09;;;23.89;53.94
63929;BME280;50105;46.522;6.626;2022-08-02T13:59:08;96054.81;;;23.92;53.32
63929;BME280;50105;46.522;6.626;2022-08-02T14:01:55;96052.56;;;23.97;53.04
63929;BME280;50105;46.522;6.626;2022-08-02T14:04:23;96053.69;;;23.95;53.13
63929;BME280;50105;46.522;6.626;2022-08-02T14:06:49;96058.66;;;23.98;52.98
63929;BME280;50105;46.522;6.626;2022-08-02T14:09:16;96052.56;;;23.97;52.97
63929;BME280;50105;46.522;6.626;2022-08-02T14:11:43;96047.25;;;23.97;53.21